Estación Agrometeorología del INTA Rafaela

Hernán Petrabissi

Más información

NOTA: Los días indicados con * significan que fueron tomados desde la Estación automática de la E. E. A. Rafaela (http://siga2.inta.gov.ar)

T. R.: Tanque Rebalsado.

S. D.: Sin dato.

 

Mes: Septiembre 2020

Fecha Temperatura ºC Temp. Mín. Evaporación Precipitaciones Heliofanía Veloc.  Viento a 10m (K/h) Humedad  Capa 
Año Mes Día Media Máxima Mínima Intemperie Efectiva Relativa 2mts. Dirección Velocidad Freática (m)
2020 9 1 7.9 10.6 6.7   0.0 9.5 0.0 0 17.4 SE 16 90 3.11
2020 9 2 9.4 11.2 5.9   0.6 7.7 0.6 5 17.1 SW 22 93 3.10
2020 9 3 9.6 13.0 6.4   1.0   1.1 9 4.0 NNW 6 90 3.11
2020 9 4 14.4 20.6 5.0 0.0 3.8   9.6 83 14.0 ENE 10 80 3.12
2020 9 5* 15.9 21.3 7.8   3.8   2.9 25 14.0 ENE 11 79 3.12
2020 9 6* 15.0 19.9 7.8   3.8   9.9 85 14.0 SSW 25 81 3.12
2020 9 7 14.3 20.9 7.0   3.5   7.8 60 11.3 E 13 68 3.13
2020 9 8 17.0 23.5 7.6   3.8   10.3 88 10.4 E 11 70 3.12
2020 9 9 18.2 25.2 10.9   7.2   6.5 55 6.0 E 9 80 3.12
2020 9 10 19.7 27.3 9.4   6.1   9.8 83 9.7 NE 10 72 3.12
2020 9 11 18.7 24.5 12.0   7.3   6.9 58 15.2 S 21 55 3.13
2020 9 12* 16.3 23.0 8.8   7.3   6.1 52 15.2 WSW 7 61 3.15
2020 9 13* 19.6 25.5 12.6   7.3   5.9 50 15.2 S 22 57 3.16
2020 9 14 14.7 21.1 4.0 -2.0 6.4   10.9 92 7.8 ESE 10 40 3.17
2020 9 15 12.2 19.0 4.7   2.0 0.0 6.7 56 6.6 ENE 11 61 3.16
2020 9 16                         3.15
2020 9 17                          
2020 9 18                          
2020 9 19*                          
2020 9 20*                          
2020 9 21                          
2020 9 22                          
2020 9 23                          
2020 9 24                          
2020 9 25                          
2020 9 26*                          
2020 9 27*                          
2020 9 28                          
2020 9 29                          
2020 9 30                          

 

Mes: Agosto 2020

Fecha Temperatura ºC Temp. Mín. Evaporación Precipitaciones Heliofanía Veloc.  Viento a 10m (K/h) Humedad  Capa 
Año Mes Día Media Máxima Mínima Intemperie Efectiva Relativa 2mts. Dirección Velocidad Freática (m)
2020 8 1* 19.5 28.2 5.2   3.1   8.7 81 6.8 NNE 11 76 2.99
2020 8 2* 22.4 30.1 13.3   3.1   8.0 75 6.8 NE 4 71 3.00
2020 8 3 25.2 33.2 20.1   6.3   9.1 84 12.5 N 13 53 3.00
2020 8 4 24.4 31.9 14.7   6.9   7.4 69 10.5 ENE 11 57 3.00
2020 8 5 26.4 34.3 18.0   6.3   8.2 76 12.2 NNW 16 52 3.01
2020 8 6 16.9 23.6 12.6   4.8   5.1 47 23.9 S 30 55 3.01
2020 8 7 12.5 15.7 8.9   1.2   2.1 19 7.6 S 17 87 3.01
2020 8 8* 14.6 17.4 11.7   1.2   0.0 0 7.6 S 7 94 3.01
2020 8 9* 18.9 27.2 10.8   1.2   2.2 20 7.6 N 4 76 3.02
2020 8 10 17.3 21.0 11.0   6.6   8.9 82 22.5 S 22 39 3.02
2020 8 11 8.7 14.5 1.6 -2.3 3.3   9.2 84 3.2 SSE 7 37 3.02
2020 8 12 10.2 15.1 2.2 -2.3 2.6   4.1 38 4.0 E 4 40 3.03
2020 8 13* 13.3 20.5 2.2 -5.3 2.6   9.6 87 4.0 E 4 48 3.03
2020 8 14 15.1 23.1 6.1   3.8   9.8 89 6.5 SSW 10 66 3.03
2020 8 15* 12.3 18.8 0.1 -4.2 3.8   9.8 89 6.5 SW 4 48 3.03
2020 8 16* 14.8 22.0 4.9   3.8   9.5 86 6.5 SSE 7 40 3.04
2020 8 17* 17.2 25.2 3.3 -0.7 3.8   9.5 86 6.5 ENE 6 42 3.04
2020 8 18 17.6 25.3 7.2   5.7   9.7 87 16.3 NNW 11 43 3.04
2020 8 19 9.2 13.4 0.2 -2.8 3.0   2.6 23 12.3 SSE 17 50 3.08
2020 8 20 6.3 14.2 -4.5 -8.0 2.2   9.7 87 4.3 SW 7 60 3.08
2020 8 21 11.4 18.2 0.2 -7.1 4.1   10.5 94 9.9 N 9 46 3.08
2020 8 22* 12.7 19.4 2.6 -3.0 4.1   10.5 94 9.9 NW 9 39 3.08
2020 8 23* 15.5 24.3 4.1   4.1   10.3 92 9.9 N 14 54 3.07
2020 8 24 21.9 28.5 12.0   5.1   7.8 69 13.2 NE 15 56 3.06
2020 8 25 25.7 31.9 18.9   5.2   8.0 71 9.1 NW 11 59 3.06
2020 8 26 16.6 22.0 13.6   3.9   2.8 25 25 S 30 82 3.07
2020 8 27 16.3 21.4 10.5 4.2 5.3 46 16.0 SSE 24 65 3.08
2020 8 28 20.1 26.5 13.0   4.8   8.2 72 13.4 E 7 76 3.09
2020 8 29* 16.9 20.5 12.6   4.8   - - 13.4 S 26 79 3.10
2020 8 30* 12.2 17.0 7.1   4.8   7.2 63 13.4 S 15 62 3.11
2020 8 31 12.1 16.2 8.7   2.9   0.3 3 14.5 SE 14 47 3.12

 

Mes: Julio 2020
Fecha Temperatura ºC Temp. Mín. Evaporación Precipitaciones Heliofanía Veloc.  Viento a 10m (K/h) Humedad  Capa 
Año Mes Día Media Máxima Mínima Intemperie Efectiva Relativa 2mts. Dirección Velocidad Freática (m)
2020 7 1 8.3 11.7 4.0   1.2   2.0 20 4.6 S 8 88 2.88
2020 7 2 8.5 15.9 2.3 -2.9 1.4   9.3 91 3.6 E 4 81 2.87
2020 7 3 11.6 18.6 3.0 -3.1 2.5   9.4 92 12.5 N 11 70 2.90
2020 7 4* 12.7 20.5 6.0   2.5   9.2 90 12.5 N 10 74 2.90
2020 7 5* 11.1 17.3 5.7   2.5   9.1 89 12.5 SSW 16 69 2.91
2020 7 6 9.3 14.7 -0.7 -4.8 1.7   8.2 80 13.6 SE 11 76 2.91
2020 7 7 9.2 12.5 7.3   1.0   0.8 8 12.6 SSE 15 78 2.91
2020 7 8 7.1 15.2 -2.4 -5.8 2.9   7.5 73 8.0 SSE 7 84 2.91
2020 7 9* 10.5 17.3 -0.5 -3.5 2.9   8.4 82 8.0 N 14 74 2.92
2020 7 10* 13.5 19.6 6.3   2.9   4.7 46 8.0 NNW 7 78 2.92
2020 7 11* 10.7 19.1 3.0 -1.1 2.9   9.5 92 8.0 NE 15 60 2.93
2020 7 12* 12.6 18.9 2.7 -1.3 2.9   9.4 91 8.0 E 9 50 2.93
2020 7 13 8.1 15.5 2.2 -0.8 0.4   9.3 90 7.4 S 10 63 2.94
2020 7 14 10.2 16.1 -2.5 -8.0 2.1   9.4 91 6.9 NNE 8 56 2.94
2020 7 15 11.0 17.2 1.4 -2.9 1.8   6.8 65 8.2 ENE 11 47 2.94
2020 7 16 13.8 20.4 7.2   2.9   7.1 68 6.5 E 5 65 2.94
2020 7 17 10.8 12.4 4.1   1.6   0.0 0 10.4 E 10 99 2.94
2020 7 18* 21.8 31.6 13.1   1.6   8.3 80 10.4 S 4 75 2.95
2020 7 19* 15.5 20.2 11.3   1.6   5.8 56 10.4 S 11 93 2.95
2020 7 20 13.3 15.4 10.6   1.1   0.0 0 13.6 S 14 95 2.95
2020 7 21 14.7 16.9 12.4   0.9   0.0 0 14.8 S 12 91 2.95
2020 7 22 12.3 13.2 10.9   0.7   0.0 0 16.0 SSW 18 92 2.96
2020 7 23 8.0 12.6 7.5   1.0 2.3 0.0 0 20.3 SW 24 88 2.96
2020 7 24 7.6 13.1 3.3   2.5   6.6 63 7.4 SSW 12 75 2.97
2020 7 25* 10.0 18.4 -2.1 -6.3 2.5   9.0 86 7.4 NNW 4 61 2.97
2020 7 26* 12.5 20.4 5.3   2.5   9.7 92 7.4 N 12 58 2.97
2020 7 27 12.3 20.0 3.1 -0.1 5.7   8.9 84 18.0 S 18 51 2.98
2020 7 28 3.7 14.2 -3.4 -5.1 2.7   9.8 92 6.3 SSE 10 49 2.98
2020 7 29 8.1 15.9 -3.0 -10.1 2.3   9.6 91 6.2 N 6 50 2.99
2020 7 30 9.7 18.0 0.6 -3.7 3.2   9.4 89 8.8 NE 7 55 2.99
2020 7 31 12.8 21.4 0.9 -3.6 3.1   8.7 81 6.8 NE 6 61 2.99

 

Mes: Junio 2020

Fecha Temperatura ºC Temp. Mín. Evaporación Precipitaciones Heliofanía Veloc.  Viento a 10m (K/h) Humedad  Capa 
Año Mes Día Media Máxima Mínima Intemperie Efectiva Relativa 2mts. Dirección Velocidad Freática (m)
2020 6 1 10.1 15.5 -0.4 -2.7 1.1   9.6 93 4.0 SE 7 65 2.78
2020 6 2 11.7 17.5 0.8 -3.2 1.6   9.3 90 6.2 N 6 67 2.78
2020 6 3 11.8 18.7 3.5 0.0 2.2   9.3 90 10.8 ESE 11 72 2.79
2020 6 4 12.6 18.3 3.1 -0.8 0.6   9.1 88 12.9 S 14 75 2.79
2020 6 5 11.6 13.3 8.9   1.6 7.6 0.0 0 9.8 SW 26 90 2.79
2020 6 6* 13.6 19.4 8.3   1.6   4.3 42 9.9 W 4 94 2.79
2020 6 7* 12.2 17.8 5.7   1.6   5.2 51 9.9 NE 4 94 2.80
2020 6 8 14.3 22.5 5.7   1.2   8.6 84 4.4 E 7 80 2.80
2020 6 9 14.7 21.7 7.7   1.6   9.5 93 4.9 E 9 78 2.80
2020 6 10 15.4 21.3 8.9   1.2   5.7 56 3.8 E 8 82 2.80
2020 6 11 15.6 21.6 8.2   1.9   7.9 79 7.1 NE 12 77 2.80
2020 6 12 16.1 22.3 8.8   2.7   8.8 86 10.7 SSE 19 67 2.80
2020 6 13* 8.8 14.8 0.9 -5.1 2.7   9.5 93 10.7 S 12 57 2.80
2020 6 14* 11.0 16.9 -1.3 -7.3 2.7   9.0 88 10.7 S 9 54 2.81
2020 6 15* 14.7 18.9 9.1   2.7   4.3 42 10.7 NE 9 74 2.81
2020 6 16 21.8 27.3 14.9   2.4   5.6 55 13.7 N 11 78 2.82
2020 6 17 22.2 28.1 15.4   1.8 3.0 2.9 28 16.6 NE 17 76 2.81
2020 6 18 12.2 18.5 7.6   1.9   8.4 82 9.3 SW 11 78 2.82
2020 6 19 16.1 24.4 7.2   1.5   6.7 66 11.5 NE 11 81 2.83
2020 6 20* 14.3 18.8 8.7   1.5   3.0 29 11.5 ESE 9 92 2.83
2020 6 21* 16.5 21.1 11.7   1.5   8.0 78 11.5 S 14 64 2.84
2020 6 22 14.8 18.4 7.9   0.8   2.7 26 6.4 NE 7 85 2.84
2020 6 23 15.5 17.8 13.4   0.9   0.0 0 13.8 S 11 94 2.84
2020 6 24 12.4 13.1 10.3   1.2   0.0 0 21.0 SSW 26 92 2.84
2020 6 25 9.0 15.5 2.1   2.1   8.8 86 6.3 SSW 7 66 2.85
2020 6 26 9.4 14.8 1.0 -5.4 1.8   5.6 56 6.4 NNE 9 65 2.87
2020 6 27* 10.6 17.0 1.3 -4.7 1.8   9.0 88 6.4 N 4 63 2.87
2020 6 28* 11.4 18.2 2.8 -3.2 1.8   7.3 72 6.4 E 11 76 2.86
2020 6 29 13.3 19.2 6.5   2.0   5.0 49 11.0 E 9 90 2.86
2020 6 30 12.1 15.7 9.3   4.8   6.2 61 27.3 S 55 74 2.87

 

Mes: Mayo 2020

Fecha Temperatura ºC Temp. Mín. Evaporación Precipitaciones Heliofanía Veloc.  Viento a 10m (K/h) Humedad  Capa 
Año Mes Día Media Máxima Mínima Intemperie Efectiva Relativa 2mts. Dirección Velocidad Freática (m)
2020 5 1* 19.3 26.3 10.8   2.4   9.3 85 5.2 WSW 4 67 2.65
2020 5 2* 17.6 24.0 10.5   2.4   10.3 94 5.2 E 9 77 2.65
2020 5 3* 17.8 21.9 14.3   2.4   1.4 13 5.2 E 7 73 2.65
2020 5 4 18.8 23.2 14.5   2.0   2.7 25 5.7 SSE 9 73 2.65
2020 5 5 15.9 19.6 8.0   3.0   9.0 83 14.7 SSE 44 62 2.66
2020 5 6 11.4 17.9 4.7   1.8   10.0 93 3.3 S 10 73 2.67
2020 5 7 13.6 20.0 2.3 -1.7 2.0   9.6 89 4.8 N 5 67 2.67
2020 5 8 15.2 22.0 7.5   4.6   9.2 85 8.6 NNE 11 61 2.66
2020 5 9* 18.0 25.4 9.9   4.6   8.8 82 8.6 N 9 60 2.67
2020 5 10* 21.9 29.8 13.6   4.6   9.8 92 8.6 N 10 69 2.68
2020 5 11 19.7 24.3 15.4   3.1   9.6 90 14.2 S 20 40 2.69
2020 5 12 17.8 22.3 13.0   2.4   4.9 46 10.5 SE 13 47 2.69
2020 5 13 16.4 22.9 6.7